KHYR/HYR METAR and TAF weather

Enter ICAO airport designator
Station Type Date Time Source
KHYR METAR 2021/08/05 03:53 UTC NOAA

KHYR 050353Z AUTO 20005KT 10SM FEW055 20/15 A3004 RMK AO2 SLP168 T02000150


Station Type Date Time Source
KHYR Decoded METAR 2021/08/05 03:53 UTC NOAA

HAYWARD MUNICIPAL AIRPORT, WI, United States (KHYR) 46-01N 91-27W 370M
Aug 04, 2021 - 11:53 PM EDT / 2021.08.05 0353 UTC
Wind: from the SSW (200 degrees) at 6 MPH (5 KT):0
Visibility: 10 mile(s):0
Sky conditions: mostly clear
Temperature: 68.0 F (20.0 C)
Dew Point: 59.0 F (15.0 C)
Relative Humidity: 72%
Pressure (altimeter): 30.04 in. Hg (1017 hPa)
ob: KHYR 050353Z AUTO 20005KT 10SM FEW055 20/15 A3004 RMK AO2 SLP168 T02000150
cycle: 4

Station Type Date Time Source
KHYR TAF 2021/08/04 18:39 UTC NOAA

TAF KHYR 041735Z 0418/0518 20008KT 6SM FU FEW250
FM042300 19007KT P6SM SCT250
FM051200 19006KT 6SM -SHRA VCTS SCT050CB BKN090

Example: see airport list